Angola, Louisiana
Current Conditions -  °F | °C
As of 8:55 AM on Friday 31 Oct 2014 (Local Time) from KHZR Reporting Station
Clear Clear  
Wind Chill: 58°   Ceiling: Unl
Heat Index: 58°   Visibility: 10mi
Dew Point: 49°   Wind: 7mph
Humidity: 74%   Direction: 320°NW
Pressure: 30.1"   Gusts: NA
Location:  30.95°N, 91.57°W
Report Text: KHZR 311355Z AUTO 32006KT 10SM CLR 14/10 A3010 RMK AO2 T01420096
Loading
Personal Weather Stations






























Interactive Weather Map
Tropical Storm Tracking
New forecast layout! Learn more

10-Day Weather Forecast

Advertisements
Track Severe Weather on mobile